^^
Station Historical Data
Daily Summary for April 7, 2017 Units:  English    Metric   Both
« Previous Day
Next Day »
Daily Weekly Monthly Yearly Custom
  High: Low: Average:
Temperature: 48.4 °F 38.6 °F 43.8 °F
Dew Point: 45.0 °F 28.6 °F 35.2 °F
Humidity: 91% 59% 72%
Wind Speed: 10.0mph 1.0mph 4.6mph
Wind Gust: 20.0mph - -
Wind- - SSW
Pressure: 29.65 in 29.29 in -
Precipitation: 0.01 in    
Historical Graphs
 
 
Tabular Data for April 7, 2017
Time Temperature Dew Point Pressure Wind Wind Speed Wind Gust Humidity Rainfall Rate (Hourly) Conditions
00:00 47.3 °F 44.5 °F 29.29 in SSW 5.0 mph 12.0 mph 90% 0.00 in RA
00:15 47.2 °F 44.4 °F 29.29 in SSW 3.0 mph 12.0 mph 90% 0.00 in SCT
00:30 47.2 °F 44.7 °F 29.29 in SSW 5.0 mph 14.0 mph 91% 0.00 in SCT
00:45 47.3 °F 44.5 °F 29.29 in SSW 5.0 mph 15.0 mph 90% 0.00 in SCT
01:00 47.5 °F 45.0 °F 29.30 in SW 7.0 mph 15.0 mph 91% 0.00 in SCT
02:15 48.4 °F 44.4 °F 29.30 in SW 7.0 mph 13.0 mph 86% 0.00 in CLR
02:30 47.8 °F 42.6 °F 29.30 in SSW 7.0 mph 16.0 mph 82% 0.00 in CLR
02:45 47.6 °F 39.7 °F 29.31 in SW 5.0 mph 17.0 mph 74% 0.00 in CLR
03:00 46.9 °F 39.0 °F 29.31 in SW 3.0 mph 10.0 mph 74% 0.00 in CLR
03:15 46.7 °F 39.2 °F 29.31 in WSW 3.0 mph 10.0 mph 75% 0.00 in FEW
03:30 46.2 °F 39.1 °F 29.31 in SSW 2.0 mph 13.0 mph 76% 0.00 in FEW
03:45 45.7 °F 38.2 °F 29.31 in SW 3.0 mph 14.0 mph 75% 0.00 in FEW
04:00 45.3 °F 37.8 °F 29.31 in SSW 3.0 mph 9.0 mph 75% 0.00 in FEW
04:15 45.1 °F 37.3 °F 29.31 in South 3.0 mph 9.0 mph 74% 0.00 in FEW
04:30 45.1 °F 37.3 °F 29.31 in SSW 3.0 mph 12.0 mph 74% 0.00 in FEW
04:45 45.0 °F 37.2 °F 29.31 in SSW 5.0 mph 13.0 mph 74% 0.00 in FEW
05:00 44.5 °F 37.1 °F 29.30 in SSW 5.0 mph 12.0 mph 75% 0.00 in FEW
05:15 44.1 °F 37.0 °F 29.30 in SSW 5.0 mph 10.0 mph 76% 0.00 in FEW
05:30 43.9 °F 37.2 °F 29.31 in SSW 3.0 mph 14.0 mph 77% 0.00 in FEW
05:45 43.6 °F 36.9 °F 29.31 in SSW 6.0 mph 13.0 mph 77% 0.00 in FEW
06:00 43.5 °F 36.8 °F 29.31 in SSW 6.0 mph 12.0 mph 77% 0.00 in FEW
06:15 43.5 °F 36.8 °F 29.31 in SSW 6.0 mph 13.0 mph 77% 0.00 in FEW
06:30 43.5 °F 36.8 °F 29.32 in SSW 6.0 mph 13.0 mph 77% 0.00 in FEW
06:45 43.5 °F 36.8 °F 29.32 in SSW 7.0 mph 13.0 mph 77% 0.00 in FEW
07:00 43.6 °F 36.5 °F 29.32 in SSW 7.0 mph 15.0 mph 76% 0.00 in FEW
07:15 43.6 °F 36.5 °F 29.32 in South 5.0 mph 14.0 mph 76% 0.00 in BKN
07:30 43.7 °F 36.6 °F 29.33 in South 5.0 mph 13.0 mph 76% 0.00 in BKN
07:45 43.7 °F 36.6 °F 29.33 in SSW 5.0 mph 16.0 mph 76% 0.00 in BKN
08:00 43.8 °F 36.4 °F 29.33 in SSW 7.0 mph 14.0 mph 75% 0.00 in BKN
08:15 44.0 °F 36.2 °F 29.33 in SSW 6.0 mph 13.0 mph 74% 0.00 in BKN
08:30 44.0 °F 36.2 °F 29.34 in SSW 5.0 mph 13.0 mph 74% 0.00 in BKN
08:45 43.9 °F 36.1 °F 29.34 in SSW 5.0 mph 13.0 mph 74% 0.00 in BKN
09:00 43.9 °F 35.8 °F 29.34 in SW 6.0 mph 15.0 mph 73% 0.00 in BKN
09:15 43.8 °F 35.7 °F 29.35 in SW 6.0 mph 14.0 mph 73% 0.00 in OVC
09:30 43.8 °F 35.7 °F 29.35 in SSW 7.0 mph 13.0 mph 73% 0.00 in OVC
09:45 43.9 °F 35.8 °F 29.35 in SSW 5.0 mph 14.0 mph 73% 0.00 in OVC
10:00 44.0 °F 35.5 °F 29.36 in SSW 8.0 mph 17.0 mph 72% 0.00 in OVC
10:15 43.6 °F 35.9 °F 29.36 in SSW 3.0 mph 18.0 mph 74% 0.00 in BKN
10:30 43.5 °F 36.1 °F 29.36 in SSW 9.0 mph 16.0 mph 75% 0.00 in BKN
10:45 43.0 °F 36.6 °F 29.37 in SSW 3.0 mph 20.0 mph 78% 0.00 in BKN
11:00 43.1 °F 36.7 °F 29.37 in SW 5.0 mph 13.0 mph 78% 0.00 in BKN
11:15 43.7 °F 37.3 °F 29.37 in SW 7.0 mph 16.0 mph 78% 0.00 in -DZ
11:30 44.0 °F 37.3 °F 29.37 in SW 5.0 mph 14.0 mph 77% 0.00 in -DZ
11:45 44.1 °F 37.3 °F 29.37 in SW 6.0 mph 14.0 mph 77% 0.00 in -DZ
12:00 41.0 °F 36.2 °F 29.38 in WSW 2.0 mph 14.0 mph 83% 0.01 in -DZ
12:30 42.3 °F 37.5 °F 29.38 in WSW 3.0 mph 13.0 mph 83% 0.00 in -DZ
12:45 44.4 °F 37.0 °F 29.38 in WSW 3.0 mph 14.0 mph 75% 0.00 in -DZ
13:00 44.6 °F 34.7 °F 29.38 in WSW 6.0 mph 17.0 mph 68% 0.00 in -DZ
13:15 44.5 °F 34.9 °F 29.38 in SW 6.0 mph 15.0 mph 69% 0.00 in BKN
13:30 44.9 °F 35.7 °F 29.38 in WSW 3.0 mph 12.0 mph 70% 0.00 in BKN
13:45 45.4 °F 35.9 °F 29.38 in SW 7.0 mph 15.0 mph 69% 0.00 in BKN
14:00 45.9 °F 36.3 °F 29.38 in WSW 2.0 mph 15.0 mph 69% 0.00 in BKN
14:15 46.0 °F 37.1 °F 29.38 in SW 5.0 mph 17.0 mph 71% 0.00 in BKN
14:30 47.3 °F 37.3 °F 29.38 in SW 2.0 mph 14.0 mph 68% 0.00 in BKN
14:45 47.1 °F 35.6 °F 29.38 in West 3.0 mph 12.0 mph 64% 0.00 in BKN
15:00 46.6 °F 37.3 °F 29.38 in WSW 5.0 mph 12.0 mph 70% 0.00 in BKN
15:15 46.5 °F 36.9 °F 29.38 in SW 3.0 mph 12.0 mph 69% 0.00 in BKN
15:30 46.8 °F 35.3 °F 29.39 in WSW 2.0 mph 12.0 mph 64% 0.00 in BKN
15:45 46.7 °F 34.0 °F 29.39 in WSW 7.0 mph 15.0 mph 61% 0.00 in BKN
16:00 46.8 °F 34.0 °F 29.40 in SW 7.0 mph 15.0 mph 61% 0.00 in BKN
16:15 46.9 °F 34.1 °F 29.40 in West 2.0 mph 18.0 mph 61% 0.00 in BKN
16:30 46.8 °F 34.0 °F 29.41 in WSW 6.0 mph 17.0 mph 61% 0.00 in BKN
16:45 46.4 °F 34.1 °F 29.42 in SW 5.0 mph 20.0 mph 62% 0.00 in BKN
17:00 45.9 °F 33.6 °F 29.43 in SSW 6.0 mph 20.0 mph 62% 0.00 in BKN
17:15 45.5 °F 33.2 °F 29.44 in WSW 6.0 mph 14.0 mph 62% 0.00 in BKN
17:30 45.3 °F 32.6 °F 29.45 in WSW 6.0 mph 17.0 mph 61% 0.00 in BKN
17:45 45.0 °F 32.3 °F 29.46 in SW 6.0 mph 18.0 mph 61% 0.00 in BKN
18:00 44.6 °F 31.2 °F 29.48 in WSW 10.0 mph 18.0 mph 59% 0.00 in BKN
18:15 43.8 °F 30.8 °F 29.50 in South 3.0 mph 16.0 mph 60% 0.00 in BKN
18:30 42.7 °F 31.7 °F 29.51 in SW 2.0 mph 15.0 mph 65% 0.00 in BKN
18:45 42.2 °F 30.9 °F 29.51 in West 3.0 mph 13.0 mph 64% 0.00 in BKN
19:00 41.7 °F 31.2 °F 29.52 in SSW 3.0 mph 14.0 mph 66% 0.00 in BKN
19:15 41.1 °F 31.3 °F 29.54 in WSW 3.0 mph 14.0 mph 68% 0.00 in SCT
19:30 40.7 °F 30.6 °F 29.54 in WNW 2.0 mph 15.0 mph 67% 0.00 in SCT
19:45 40.6 °F 30.9 °F 29.55 in WSW 3.0 mph 13.0 mph 68% 0.00 in SCT
20:00 40.4 °F 30.3 °F 29.55 in ENE 5.0 mph 10.0 mph 67% 0.00 in SCT
20:15 40.0 °F 31.3 °F 29.57 in NE 2.0 mph 16.0 mph 71% 0.00 in BKN
20:30 39.8 °F 30.5 °F 29.58 in NE 3.0 mph 13.0 mph 69% 0.00 in BKN
20:45 39.7 °F 30.4 °F 29.59 in East 3.0 mph 16.0 mph 69% 0.00 in BKN
21:00 39.7 °F 29.6 °F 29.60 in West 1.0 mph 12.0 mph 67% 0.00 in BKN
21:15 39.6 °F 29.2 °F 29.61 in NE 5.0 mph 20.0 mph 66% 0.00 in OVC
21:30 39.5 °F 29.0 °F 29.61 in SSE 5.0 mph 13.0 mph 66% 0.00 in OVC
21:45 39.3 °F 28.9 °F 29.62 in SW 3.0 mph 14.0 mph 66% 0.00 in OVC
22:00 39.2 °F 28.8 °F 29.63 in SW 3.0 mph 12.0 mph 66% 0.00 in OVC
22:15 39.1 °F 28.7 °F 29.64 in West 1.0 mph 16.0 mph 66% 0.00 in SCT
22:30 39.0 °F 28.6 °F 29.64 in WSW 3.0 mph 13.0 mph 66% 0.00 in SCT
22:45 38.9 °F 28.9 °F 29.64 in SSW 6.0 mph 15.0 mph 67% 0.00 in SCT
23:00 38.8 °F 28.8 °F 29.65 in WSW 5.0 mph 18.0 mph 67% 0.00 in SCT
23:15 38.7 °F 28.7 °F 29.65 in SSW 5.0 mph 16.0 mph 67% 0.00 in SCT
23:30 38.6 °F 28.9 °F 29.65 in SW 6.0 mph 20.0 mph 68% 0.00 in SCT
23:45 38.6 °F 28.9 °F 29.65 in WSW 6.0 mph 16.0 mph 68% 0.00 in SCT
TarryTown NY Weather
Compliments of Weather Underground - 1.5 mb